createdAt,value
2022-12-18T00:04:38.089Z,14.77
2022-12-18T00:09:40.641Z,13.65
2022-12-18T00:14:43.207Z,14.55
2022-12-18T00:19:44.774Z,13.95
2022-12-18T00:24:46.483Z,13.85
2022-12-18T00:29:49.322Z,12.60
2022-12-18T00:34:51.016Z,14.25
2022-12-18T00:39:52.710Z,13.05
2022-12-18T00:44:55.193Z,13.40
2022-12-18T00:49:56.770Z,11.63
2022-12-18T00:55:03.059Z,15.00
2022-12-18T01:00:10.204Z,14.40
2022-12-18T01:05:16.514Z,13.80
2022-12-18T01:10:18.640Z,15.98
2022-12-18T01:15:21.408Z,15.63
2022-12-18T01:20:23.341Z,15.50
2022-12-18T01:25:24.998Z,17.00
2022-12-18T01:30:26.565Z,17.40
2022-12-18T01:35:28.312Z,16.23
2022-12-18T01:40:30.429Z,15.65
2022-12-18T01:45:32.941Z,16.08
2022-12-18T01:50:40.862Z,14.32
2022-12-18T01:55:52.931Z,14.82
2022-12-18T02:00:56.732Z,15.65
2022-12-18T02:06:05.912Z,15.50
2022-12-18T02:11:35.892Z,15.80
2022-12-18T02:17:02.053Z,16.30
2022-12-18T02:22:25.475Z,17.67
2022-12-18T02:27:28.977Z,16.80
2022-12-18T02:32:38.577Z,16.00
2022-12-18T02:37:42.917Z,17.15
2022-12-18T02:42:45.348Z,15.00
2022-12-18T02:47:51.413Z,16.63
2022-12-18T02:53:18.014Z,16.20
2022-12-18T02:58:26.023Z,16.70
2022-12-18T03:03:39.888Z,15.82
2022-12-18T03:08:50.585Z,16.55
2022-12-18T03:13:59.247Z,15.82
2022-12-18T03:24:20.154Z,14.88
2022-12-18T03:29:28.152Z,15.30
2022-12-18T03:34:33.563Z,16.42
2022-12-18T03:39:38.555Z,16.63
2022-12-18T03:45:02.953Z,16.73
2022-12-18T03:50:12.810Z,17.33
2022-12-18T03:55:18.652Z,18.08
2022-12-18T04:00:23.053Z,18.20
2022-12-18T04:05:39.860Z,16.50
2022-12-18T04:10:42.821Z,18.25
2022-12-18T04:15:44.753Z,18.65
2022-12-18T04:20:50.135Z,18.73
2022-12-18T04:25:53.279Z,17.20
2022-12-18T04:31:10.857Z,19.67
2022-12-18T04:36:13.439Z,17.17
2022-12-18T04:41:16.042Z,18.30
2022-12-18T04:46:20.553Z,16.88
2022-12-18T04:51:26.344Z,16.67
2022-12-18T04:56:28.499Z,18.27
2022-12-18T05:01:34.596Z,18.58
2022-12-18T05:06:36.756Z,19.02
2022-12-18T05:11:38.521Z,17.85
2022-12-18T05:16:40.198Z,19.48
2022-12-18T05:21:42.171Z,18.38
2022-12-18T05:26:44.402Z,18.48
2022-12-18T05:31:46.112Z,18.77
2022-12-18T05:36:47.798Z,22.42
2022-12-18T05:41:49.456Z,19.88
2022-12-18T05:46:51.127Z,22.20
2022-12-18T05:51:52.976Z,21.08
2022-12-18T05:56:54.913Z,23.58
2022-12-18T06:01:56.577Z,17.48
2022-12-18T06:06:58.624Z,22.05
2022-12-18T06:12:00.252Z,24.02
2022-12-18T06:17:02.303Z,21.83
2022-12-18T06:22:03.921Z,19.10
2022-12-18T06:27:05.508Z,20.50
2022-12-18T06:32:07.185Z,21.35
2022-12-18T06:37:09.043Z,21.73
2022-12-18T06:42:10.810Z,21.65
2022-12-18T06:47:12.422Z,19.48
2022-12-18T06:52:14.198Z,22.45
2022-12-18T06:57:16.129Z,23.63
2022-12-18T07:02:18.612Z,40.92
2022-12-18T07:07:20.531Z,32.42
2022-12-18T07:12:22.130Z,39.35
2022-12-18T07:17:23.818Z,34.45
2022-12-18T07:22:27.104Z,39.65
2022-12-18T07:27:28.697Z,29.38
2022-12-18T07:32:31.526Z,24.27
2022-12-18T07:37:33.259Z,23.10
2022-12-18T07:42:35.796Z,23.23
2022-12-18T07:47:37.654Z,22.67
2022-12-18T07:52:39.310Z,23.42
2022-12-18T07:57:50.701Z,24.25
2022-12-18T08:02:54.334Z,23.65
2022-12-18T08:07:56.992Z,24.25
2022-12-18T08:13:04.463Z,23.95
2022-12-18T08:18:10.102Z,25.45
2022-12-18T08:23:14.319Z,29.05
2022-12-18T08:28:15.911Z,26.30
2022-12-18T08:33:17.580Z,22.98
2022-12-18T08:38:19.267Z,21.48
2022-12-18T08:43:40.645Z,24.27
2022-12-18T08:48:42.673Z,23.95
2022-12-18T08:53:45.481Z,22.98
2022-12-18T08:58:47.615Z,23.73
2022-12-18T09:03:50.728Z,27.90
2022-12-18T09:08:52.380Z,27.27
2022-12-18T09:13:55.121Z,25.23
2022-12-18T09:19:00.529Z,26.55
2022-12-18T09:24:02.240Z,26.75
2022-12-18T09:29:04.916Z,29.65
2022-12-18T09:34:06.993Z,28.42
2022-12-18T09:39:09.132Z,29.50
2022-12-18T09:44:13.746Z,28.50
2022-12-18T09:49:19.173Z,28.75
2022-12-18T09:54:32.279Z,46.75
2022-12-18T09:59:40.691Z,32.30
2022-12-18T10:04:43.068Z,30.40
2022-12-18T10:10:02.067Z,32.05
2022-12-18T10:15:15.900Z,31.95
2022-12-18T10:20:30.911Z,34.30
2022-12-18T10:25:42.607Z,32.05
2022-12-18T10:30:45.005Z,33.28
2022-12-18T10:35:49.010Z,31.00
2022-12-18T10:41:03.891Z,31.17
2022-12-18T10:46:08.693Z,29.63
2022-12-18T10:51:13.127Z,36.97
2022-12-18T10:56:21.675Z,30.33
2022-12-18T11:06:26.646Z,29.42
2022-12-18T11:11:29.372Z,28.70
2022-12-18T11:16:36.078Z,26.23
2022-12-18T11:21:42.644Z,28.48
2022-12-18T11:26:44.398Z,29.58
2022-12-18T11:31:46.448Z,28.00
2022-12-18T11:36:49.525Z,29.33
2022-12-18T11:42:12.403Z,31.95
2022-12-18T11:47:29.352Z,25.42
2022-12-18T11:52:40.043Z,27.67
2022-12-18T11:58:39.219Z,28.60
2022-12-18T12:03:50.896Z,28.52
2022-12-18T12:09:11.787Z,27.42
2022-12-18T12:14:31.124Z,30.73
2022-12-18T12:19:54.934Z,31.17
2022-12-18T12:25:21.224Z,26.23
2022-12-18T12:30:40.436Z,26.58
2022-12-18T12:35:47.924Z,24.88
2022-12-18T12:41:04.021Z,19.67
2022-12-18T12:46:08.350Z,29.73
2022-12-18T12:51:38.083Z,28.35
2022-12-18T12:57:04.351Z,24.75
2022-12-18T13:02:24.121Z,25.95
2022-12-18T13:07:33.555Z,24.55
2022-12-18T13:12:53.417Z,26.70
2022-12-18T13:18:10.264Z,24.83
2022-12-18T13:23:28.699Z,25.05
2022-12-18T13:28:34.174Z,26.92
2022-12-18T13:33:35.920Z,26.10
2022-12-18T13:38:39.747Z,26.27
2022-12-18T13:43:47.592Z,27.05
2022-12-18T13:48:53.180Z,25.87
2022-12-18T13:54:01.070Z,27.70
2022-12-18T14:04:24.612Z,27.98
2022-12-18T14:09:30.048Z,27.10
2022-12-18T14:14:33.797Z,28.33
2022-12-18T14:19:36.886Z,27.00
2022-12-18T14:24:38.521Z,47.10
2022-12-18T14:29:44.067Z,35.08
2022-12-18T14:34:56.247Z,28.60
2022-12-18T14:40:03.148Z,33.60
2022-12-18T14:45:41.589Z,32.75
2022-12-18T14:50:45.157Z,29.77
2022-12-18T14:55:48.895Z,28.10
2022-12-18T15:00:51.304Z,31.38
2022-12-18T15:05:52.945Z,30.02
2022-12-18T15:10:54.786Z,32.10
2022-12-18T15:16:02.394Z,27.92
2022-12-18T15:21:12.341Z,36.42
2022-12-18T15:26:16.562Z,28.80
2022-12-18T15:31:18.330Z,29.65
2022-12-18T15:36:26.367Z,32.25
2022-12-18T15:41:34.502Z,28.45
2022-12-18T15:46:37.996Z,19.60
2022-12-18T15:51:40.895Z,26.73
2022-12-18T15:57:01.546Z,25.67
2022-12-18T16:02:03.455Z,24.17
2022-12-18T16:07:14.861Z,26.67
2022-12-18T16:12:23.965Z,27.17
2022-12-18T16:17:25.681Z,25.48
2022-12-18T16:22:30.032Z,27.50
2022-12-18T16:27:31.947Z,25.77
2022-12-18T16:32:33.967Z,25.00
2022-12-18T16:37:35.963Z,26.65
2022-12-18T16:42:38.856Z,27.95
2022-12-18T16:47:42.125Z,26.08
2022-12-18T16:52:45.209Z,26.40
2022-12-18T16:57:46.882Z,29.13
2022-12-18T17:02:51.076Z,30.30
2022-12-18T17:07:52.901Z,32.60
2022-12-18T17:12:56.355Z,29.30
2022-12-18T17:18:05.707Z,25.95
2022-12-18T17:23:09.490Z,25.23
2022-12-18T17:28:12.589Z,28.17
2022-12-18T17:33:14.537Z,27.17
2022-12-18T17:38:18.193Z,27.00
2022-12-18T17:43:20.666Z,31.05
2022-12-18T17:48:25.597Z,28.42
2022-12-18T17:53:30.191Z,26.63
2022-12-18T17:58:33.577Z,25.73
2022-12-18T18:03:38.133Z,28.27
2022-12-18T18:08:40.061Z,27.73
2022-12-18T18:14:08.231Z,26.60
2022-12-18T18:19:16.712Z,24.60
2022-12-18T18:24:20.847Z,23.38
2022-12-18T18:29:26.970Z,24.15
2022-12-18T18:34:32.504Z,22.42
2022-12-18T18:39:34.807Z,22.30
2022-12-18T18:44:36.797Z,23.73
2022-12-18T18:49:38.719Z,24.90
2022-12-18T18:54:57.107Z,25.42
2022-12-18T19:00:04.172Z,25.85
2022-12-18T19:05:05.990Z,28.63
2022-12-18T19:10:08.581Z,27.35
2022-12-18T19:15:10.336Z,28.27
2022-12-18T19:20:12.073Z,28.05
2022-12-18T19:25:15.086Z,28.48
2022-12-18T19:30:17.006Z,27.95
2022-12-18T19:35:18.636Z,26.95
2022-12-18T19:40:20.390Z,28.55
2022-12-18T19:45:22.048Z,27.33
2022-12-18T19:50:25.530Z,27.20
2022-12-18T19:55:27.565Z,28.08
2022-12-18T20:00:29.180Z,25.25
2022-12-18T20:05:31.137Z,26.38
2022-12-18T20:10:33.082Z,25.52
2022-12-18T20:15:34.679Z,25.40
2022-12-18T20:20:38.922Z,26.02
2022-12-18T20:25:41.930Z,27.50
2022-12-18T20:30:43.656Z,29.52
2022-12-18T20:35:45.362Z,28.52
2022-12-18T20:40:47.861Z,28.65
2022-12-18T20:45:49.521Z,31.27
2022-12-18T20:51:03.802Z,28.85
2022-12-18T20:56:13.763Z,29.27
2022-12-18T21:01:21.149Z,29.88
2022-12-18T21:06:24.484Z,31.90
2022-12-18T21:11:47.389Z,29.42
2022-12-18T21:16:50.014Z,31.90
2022-12-18T21:21:52.782Z,31.85
2022-12-18T21:26:54.641Z,30.20
2022-12-18T21:31:56.929Z,30.15
2022-12-18T21:37:00.363Z,30.88
2022-12-18T21:42:20.505Z,31.70
2022-12-18T21:47:23.481Z,32.80
2022-12-18T21:52:32.372Z,32.28
2022-12-18T21:57:34.357Z,30.60
2022-12-18T22:02:36.135Z,31.58
2022-12-18T22:07:38.329Z,32.00
2022-12-18T22:12:43.719Z,32.58
2022-12-18T22:17:46.921Z,30.00
2022-12-18T22:22:50.396Z,30.50
2022-12-18T22:28:10.917Z,32.30
2022-12-18T22:33:12.888Z,30.40
2022-12-18T22:38:14.530Z,33.35
2022-12-18T22:43:16.336Z,32.70
2022-12-18T22:48:18.164Z,28.75
2022-12-18T22:53:20.920Z,27.65
2022-12-18T22:58:22.564Z,25.38
2022-12-18T23:03:24.177Z,25.42
2022-12-18T23:08:25.873Z,25.60
2022-12-18T23:13:30.154Z,26.10
2022-12-18T23:18:31.895Z,27.58
2022-12-18T23:23:37.085Z,27.20
2022-12-18T23:28:39.538Z,28.42
2022-12-18T23:33:41.568Z,25.67
2022-12-18T23:38:47.719Z,26.70
2022-12-18T23:43:49.862Z,29.83
2022-12-18T23:48:51.965Z,32.60
2022-12-18T23:53:56.363Z,32.92
2022-12-18T23:58:58.069Z,31.13
